sensor_id;sensor_type;location;lat;lon;timestamp;P1;durP1;ratioP1;P2;durP2;ratioP2
62435;SDS011;48480;50.252;18.848;2023-06-10T00:01:36;21.00;;;18.90;;
62435;SDS011;48480;50.252;18.848;2023-06-10T00:04:21;21.00;;;18.80;;
62435;SDS011;48480;50.252;18.848;2023-06-10T00:07:06;20.50;;;18.30;;
62435;SDS011;48480;50.252;18.848;2023-06-10T00:09:51;20.60;;;18.50;;
62435;SDS011;48480;50.252;18.848;2023-06-10T00:12:36;20.20;;;18.10;;
62435;SDS011;48480;50.252;18.848;2023-06-10T00:15:22;19.70;;;17.70;;
62435;SDS011;48480;50.252;18.848;2023-06-10T00:18:06;18.90;;;17.00;;
62435;SDS011;48480;50.252;18.848;2023-06-10T00:20:53;19.00;;;17.10;;
62435;SDS011;48480;50.252;18.848;2023-06-10T00:23:38;18.80;;;16.80;;
62435;SDS011;48480;50.252;18.848;2023-06-10T00:26:23;19.40;;;17.40;;
62435;SDS011;48480;50.252;18.848;2023-06-10T00:29:07;19.80;;;17.80;;
62435;SDS011;48480;50.252;18.848;2023-06-10T00:31:51;19.60;;;17.70;;
62435;SDS011;48480;50.252;18.848;2023-06-10T00:34:37;19.70;;;17.60;;
62435;SDS011;48480;50.252;18.848;2023-06-10T00:37:22;20.70;;;18.20;;
62435;SDS011;48480;50.252;18.848;2023-06-10T00:40:06;20.20;;;18.00;;
62435;SDS011;48480;50.252;18.848;2023-06-10T00:42:52;19.70;;;17.70;;
62435;SDS011;48480;50.252;18.848;2023-06-10T00:45:36;19.40;;;17.50;;
62435;SDS011;48480;50.252;18.848;2023-06-10T00:48:20;19.50;;;17.50;;
62435;SDS011;48480;50.252;18.848;2023-06-10T00:51:04;19.20;;;17.20;;
62435;SDS011;48480;50.252;18.848;2023-06-10T00:53:49;18.70;;;16.70;;
62435;SDS011;48480;50.252;18.848;2023-06-10T00:56:34;19.50;;;17.40;;
62435;SDS011;48480;50.252;18.848;2023-06-10T00:59:19;20.20;;;18.00;;
62435;SDS011;48480;50.252;18.848;2023-06-10T01:02:03;20.50;;;17.80;;
62435;SDS011;48480;50.252;18.848;2023-06-10T01:04:48;20.30;;;17.90;;
62435;SDS011;48480;50.252;18.848;2023-06-10T01:10:24;18.70;;;16.70;;
62435;SDS011;48480;50.252;18.848;2023-06-10T01:13:18;19.40;;;17.40;;
62435;SDS011;48480;50.252;18.848;2023-06-10T01:16:07;19.00;;;17.00;;
62435;SDS011;48480;50.252;18.848;2023-06-10T01:18:53;18.80;;;16.80;;
62435;SDS011;48480;50.252;18.848;2023-06-10T01:21:38;19.20;;;16.70;;
62435;SDS011;48480;50.252;18.848;2023-06-10T01:24:22;17.90;;;15.90;;
62435;SDS011;48480;50.252;18.848;2023-06-10T01:27:10;18.40;;;16.30;;
62435;SDS011;48480;50.252;18.848;2023-06-10T01:29:59;17.50;;;15.70;;
62435;SDS011;48480;50.252;18.848;2023-06-10T01:32:50;18.40;;;16.60;;
62435;SDS011;48480;50.252;18.848;2023-06-10T01:35:35;19.50;;;17.60;;
62435;SDS011;48480;50.252;18.848;2023-06-10T01:38:22;19.70;;;17.70;;
62435;SDS011;48480;50.252;18.848;2023-06-10T01:41:13;19.90;;;17.80;;
62435;SDS011;48480;50.252;18.848;2023-06-10T01:44:00;19.00;;;17.20;;
62435;SDS011;48480;50.252;18.848;2023-06-10T01:46:44;21.80;;;19.50;;
62435;SDS011;48480;50.252;18.848;2023-06-10T01:49:29;19.50;;;17.40;;
62435;SDS011;48480;50.252;18.848;2023-06-10T01:52:13;18.30;;;16.40;;
62435;SDS011;48480;50.252;18.848;2023-06-10T01:54:57;19.60;;;17.20;;
62435;SDS011;48480;50.252;18.848;2023-06-10T01:57:41;19.50;;;17.50;;
62435;SDS011;48480;50.252;18.848;2023-06-10T02:00:25;19.50;;;17.60;;
62435;SDS011;48480;50.252;18.848;2023-06-10T02:03:10;19.90;;;17.70;;
62435;SDS011;48480;50.252;18.848;2023-06-10T02:05:54;19.70;;;17.70;;
62435;SDS011;48480;50.252;18.848;2023-06-10T02:08:39;19.60;;;17.60;;
62435;SDS011;48480;50.252;18.848;2023-06-10T02:11:23;19.60;;;17.70;;
62435;SDS011;48480;50.252;18.848;2023-06-10T02:14:07;18.90;;;17.00;;
62435;SDS011;48480;50.252;18.848;2023-06-10T02:16:51;19.50;;;17.50;;
62435;SDS011;48480;50.252;18.848;2023-06-10T02:19:40;19.90;;;17.20;;
62435;SDS011;48480;50.252;18.848;2023-06-10T02:22:26;20.10;;;18.00;;
62435;SDS011;48480;50.252;18.848;2023-06-10T02:25:10;20.00;;;18.00;;
62435;SDS011;48480;50.252;18.848;2023-06-10T02:27:54;19.10;;;17.30;;
62435;SDS011;48480;50.252;18.848;2023-06-10T02:30:39;19.60;;;17.60;;
62435;SDS011;48480;50.252;18.848;2023-06-10T02:33:24;19.40;;;17.30;;
62435;SDS011;48480;50.252;18.848;2023-06-10T02:36:08;21.70;;;17.90;;
62435;SDS011;48480;50.252;18.848;2023-06-10T02:38:56;20.00;;;17.90;;
62435;SDS011;48480;50.252;18.848;2023-06-10T02:41:40;18.70;;;16.80;;
62435;SDS011;48480;50.252;18.848;2023-06-10T02:44:25;20.30;;;18.20;;
62435;SDS011;48480;50.252;18.848;2023-06-10T02:47:09;20.20;;;17.10;;
62435;SDS011;48480;50.252;18.848;2023-06-10T02:49:54;19.80;;;17.80;;
62435;SDS011;48480;50.252;18.848;2023-06-10T02:52:37;19.50;;;17.50;;
62435;SDS011;48480;50.252;18.848;2023-06-10T02:55:21;18.50;;;16.60;;
62435;SDS011;48480;50.252;18.848;2023-06-10T02:58:09;19.60;;;17.50;;
62435;SDS011;48480;50.252;18.848;2023-06-10T03:00:53;18.50;;;16.70;;
62435;SDS011;48480;50.252;18.848;2023-06-10T03:03:38;18.90;;;17.10;;
62435;SDS011;48480;50.252;18.848;2023-06-10T03:06:25;19.20;;;17.20;;
62435;SDS011;48480;50.252;18.848;2023-06-10T03:09:10;19.70;;;17.60;;
62435;SDS011;48480;50.252;18.848;2023-06-10T03:11:54;18.70;;;16.90;;
62435;SDS011;48480;50.252;18.848;2023-06-10T03:14:38;20.20;;;18.00;;
62435;SDS011;48480;50.252;18.848;2023-06-10T03:17:22;19.40;;;17.50;;
62435;SDS011;48480;50.252;18.848;2023-06-10T03:20:07;19.30;;;17.40;;
62435;SDS011;48480;50.252;18.848;2023-06-10T03:22:54;20.00;;;18.00;;
62435;SDS011;48480;50.252;18.848;2023-06-10T03:25:38;23.00;;;17.60;;
62435;SDS011;48480;50.252;18.848;2023-06-10T03:28:22;19.90;;;17.90;;
62435;SDS011;48480;50.252;18.848;2023-06-10T03:31:06;20.00;;;18.00;;
62435;SDS011;48480;50.252;18.848;2023-06-10T03:33:50;20.20;;;18.00;;
62435;SDS011;48480;50.252;18.848;2023-06-10T03:36:34;20.00;;;18.00;;
62435;SDS011;48480;50.252;18.848;2023-06-10T03:39:21;21.90;;;18.10;;
62435;SDS011;48480;50.252;18.848;2023-06-10T03:42:07;21.10;;;18.30;;
62435;SDS011;48480;50.252;18.848;2023-06-10T03:44:51;24.40;;;18.90;;
62435;SDS011;48480;50.252;18.848;2023-06-10T03:47:36;19.60;;;17.50;;
62435;SDS011;48480;50.252;18.848;2023-06-10T03:50:21;19.40;;;17.50;;
62435;SDS011;48480;50.252;18.848;2023-06-10T03:53:07;21.50;;;19.30;;
62435;SDS011;48480;50.252;18.848;2023-06-10T03:55:50;21.20;;;19.00;;
62435;SDS011;48480;50.252;18.848;2023-06-10T03:58:37;22.50;;;20.10;;
62435;SDS011;48480;50.252;18.848;2023-06-10T04:01:21;24.00;;;20.80;;
62435;SDS011;48480;50.252;18.848;2023-06-10T04:04:07;21.80;;;19.50;;
62435;SDS011;48480;50.252;18.848;2023-06-10T04:06:52;21.10;;;19.00;;
62435;SDS011;48480;50.252;18.848;2023-06-10T04:09:36;22.60;;;20.20;;
62435;SDS011;48480;50.252;18.848;2023-06-10T04:12:20;21.70;;;19.10;;
62435;SDS011;48480;50.252;18.848;2023-06-10T04:15:05;23.10;;;20.50;;
62435;SDS011;48480;50.252;18.848;2023-06-10T04:17:50;22.50;;;19.40;;
62435;SDS011;48480;50.252;18.848;2023-06-10T04:20:35;21.70;;;19.00;;
62435;SDS011;48480;50.252;18.848;2023-06-10T04:23:19;22.90;;;20.10;;
62435;SDS011;48480;50.252;18.848;2023-06-10T04:26:04;20.90;;;18.80;;
62435;SDS011;48480;50.252;18.848;2023-06-10T04:28:49;19.70;;;17.80;;
62435;SDS011;48480;50.252;18.848;2023-06-10T04:31:33;20.20;;;18.30;;
62435;SDS011;48480;50.252;18.848;2023-06-10T04:34:17;19.90;;;17.80;;
62435;SDS011;48480;50.252;18.848;2023-06-10T04:37:01;14.70;;;13.20;;
62435;SDS011;48480;50.252;18.848;2023-06-10T04:39:45;15.20;;;12.40;;
62435;SDS011;48480;50.252;18.848;2023-06-10T04:42:29;15.30;;;11.90;;
62435;SDS011;48480;50.252;18.848;2023-06-10T04:45:13;13.00;;;11.50;;
62435;SDS011;48480;50.252;18.848;2023-06-10T04:47:58;13.40;;;12.00;;
62435;SDS011;48480;50.252;18.848;2023-06-10T04:50:42;12.80;;;11.60;;
62435;SDS011;48480;50.252;18.848;2023-06-10T04:53:25;13.20;;;11.30;;
62435;SDS011;48480;50.252;18.848;2023-06-10T04:56:11;13.10;;;11.80;;
62435;SDS011;48480;50.252;18.848;2023-06-10T04:58:56;12.50;;;10.70;;
62435;SDS011;48480;50.252;18.848;2023-06-10T05:01:41;12.80;;;10.90;;
62435;SDS011;48480;50.252;18.848;2023-06-10T05:04:24;12.20;;;10.70;;
62435;SDS011;48480;50.252;18.848;2023-06-10T05:07:08;11.80;;;10.40;;
62435;SDS011;48480;50.252;18.848;2023-06-10T05:09:53;11.80;;;10.60;;
62435;SDS011;48480;50.252;18.848;2023-06-10T05:12:38;13.50;;;10.70;;
62435;SDS011;48480;50.252;18.848;2023-06-10T05:15:22;12.40;;;11.10;;
62435;SDS011;48480;50.252;18.848;2023-06-10T05:18:06;12.40;;;11.10;;
62435;SDS011;48480;50.252;18.848;2023-06-10T05:20:51;12.40;;;11.10;;
62435;SDS011;48480;50.252;18.848;2023-06-10T05:23:34;12.90;;;10.90;;
62435;SDS011;48480;50.252;18.848;2023-06-10T05:26:18;11.10;;;10.00;;
62435;SDS011;48480;50.252;18.848;2023-06-10T05:29:03;11.70;;;10.50;;
62435;SDS011;48480;50.252;18.848;2023-06-10T05:31:47;13.40;;;10.90;;
62435;SDS011;48480;50.252;18.848;2023-06-10T05:34:31;12.10;;;10.80;;
62435;SDS011;48480;50.252;18.848;2023-06-10T05:37:16;11.90;;;9.70;;
62435;SDS011;48480;50.252;18.848;2023-06-10T05:40:00;11.40;;;10.10;;
62435;SDS011;48480;50.252;18.848;2023-06-10T05:42:44;11.00;;;9.90;;
62435;SDS011;48480;50.252;18.848;2023-06-10T05:45:28;11.30;;;10.20;;
62435;SDS011;48480;50.252;18.848;2023-06-10T05:48:12;12.70;;;10.20;;
62435;SDS011;48480;50.252;18.848;2023-06-10T05:50:56;11.40;;;9.90;;
62435;SDS011;48480;50.252;18.848;2023-06-10T05:53:40;11.20;;;9.90;;
62435;SDS011;48480;50.252;18.848;2023-06-10T05:56:23;11.60;;;10.30;;
62435;SDS011;48480;50.252;18.848;2023-06-10T05:59:09;12.50;;;10.50;;
62435;SDS011;48480;50.252;18.848;2023-06-10T06:01:53;12.80;;;9.80;;
62435;SDS011;48480;50.252;18.848;2023-06-10T06:04:38;11.70;;;9.80;;
62435;SDS011;48480;50.252;18.848;2023-06-10T06:07:22;10.90;;;9.80;;
62435;SDS011;48480;50.252;18.848;2023-06-10T06:10:06;10.20;;;9.10;;
62435;SDS011;48480;50.252;18.848;2023-06-10T06:12:50;13.20;;;10.00;;
62435;SDS011;48480;50.252;18.848;2023-06-10T06:15:34;10.80;;;9.60;;
62435;SDS011;48480;50.252;18.848;2023-06-10T06:18:18;10.90;;;9.70;;
62435;SDS011;48480;50.252;18.848;2023-06-10T06:21:03;11.10;;;9.30;;
62435;SDS011;48480;50.252;18.848;2023-06-10T06:23:47;11.40;;;10.20;;
62435;SDS011;48480;50.252;18.848;2023-06-10T06:26:31;11.30;;;9.90;;
62435;SDS011;48480;50.252;18.848;2023-06-10T06:29:16;11.30;;;10.20;;
62435;SDS011;48480;50.252;18.848;2023-06-10T06:32:00;11.70;;;10.10;;
62435;SDS011;48480;50.252;18.848;2023-06-10T06:34:44;11.90;;;9.70;;
62435;SDS011;48480;50.252;18.848;2023-06-10T06:37:28;10.70;;;9.70;;
62435;SDS011;48480;50.252;18.848;2023-06-10T06:40:12;12.30;;;9.20;;
62435;SDS011;48480;50.252;18.848;2023-06-10T06:42:56;13.30;;;9.30;;
62435;SDS011;48480;50.252;18.848;2023-06-10T06:45:40;11.10;;;9.50;;
62435;SDS011;48480;50.252;18.848;2023-06-10T06:48:24;10.40;;;9.30;;
62435;SDS011;48480;50.252;18.848;2023-06-10T06:51:08;11.10;;;9.30;;
62435;SDS011;48480;50.252;18.848;2023-06-10T06:53:52;10.30;;;8.90;;
62435;SDS011;48480;50.252;18.848;2023-06-10T06:56:41;10.70;;;9.20;;
62435;SDS011;48480;50.252;18.848;2023-06-10T06:59:26;11.00;;;9.80;;
62435;SDS011;48480;50.252;18.848;2023-06-10T07:02:10;11.80;;;9.80;;
62435;SDS011;48480;50.252;18.848;2023-06-10T07:04:53;11.00;;;9.70;;
62435;SDS011;48480;50.252;18.848;2023-06-10T07:07:39;9.40;;;8.30;;
62435;SDS011;48480;50.252;18.848;2023-06-10T07:10:23;11.20;;;8.50;;
62435;SDS011;48480;50.252;18.848;2023-06-10T07:13:09;9.40;;;8.00;;
62435;SDS011;48480;50.252;18.848;2023-06-10T07:15:53;9.40;;;8.20;;
62435;SDS011;48480;50.252;18.848;2023-06-10T07:18:37;11.80;;;9.30;;
62435;SDS011;48480;50.252;18.848;2023-06-10T07:21:22;10.30;;;8.90;;
62435;SDS011;48480;50.252;18.848;2023-06-10T07:24:07;11.00;;;9.10;;
62435;SDS011;48480;50.252;18.848;2023-06-10T07:26:51;10.30;;;8.90;;
62435;SDS011;48480;50.252;18.848;2023-06-10T07:29:35;10.70;;;8.80;;
62435;SDS011;48480;50.252;18.848;2023-06-10T07:32:19;10.40;;;9.30;;
62435;SDS011;48480;50.252;18.848;2023-06-10T07:35:08;10.00;;;9.00;;
62435;SDS011;48480;50.252;18.848;2023-06-10T07:37:54;12.10;;;10.70;;
62435;SDS011;48480;50.252;18.848;2023-06-10T07:40:38;12.80;;;11.20;;
62435;SDS011;48480;50.252;18.848;2023-06-10T07:43:22;13.30;;;11.50;;
62435;SDS011;48480;50.252;18.848;2023-06-10T07:46:07;13.30;;;11.40;;
62435;SDS011;48480;50.252;18.848;2023-06-10T07:48:51;13.90;;;12.50;;
62435;SDS011;48480;50.252;18.848;2023-06-10T07:51:35;14.30;;;12.20;;
62435;SDS011;48480;50.252;18.848;2023-06-10T07:54:20;13.40;;;11.70;;
62435;SDS011;48480;50.252;18.848;2023-06-10T07:57:04;15.50;;;11.40;;
62435;SDS011;48480;50.252;18.848;2023-06-10T07:59:50;12.60;;;10.30;;
62435;SDS011;48480;50.252;18.848;2023-06-10T08:02:35;11.10;;;9.80;;
62435;SDS011;48480;50.252;18.848;2023-06-10T08:05:19;11.40;;;9.60;;
62435;SDS011;48480;50.252;18.848;2023-06-10T08:08:04;11.50;;;9.40;;
62435;SDS011;48480;50.252;18.848;2023-06-10T08:10:48;13.00;;;10.40;;
62435;SDS011;48480;50.252;18.848;2023-06-10T08:13:33;13.40;;;10.20;;
62435;SDS011;48480;50.252;18.848;2023-06-10T08:16:17;13.90;;;10.80;;
62435;SDS011;48480;50.252;18.848;2023-06-10T08:19:03;12.30;;;9.80;;
62435;SDS011;48480;50.252;18.848;2023-06-10T08:21:48;12.50;;;9.20;;
62435;SDS011;48480;50.252;18.848;2023-06-10T08:24:32;9.00;;;8.00;;
62435;SDS011;48480;50.252;18.848;2023-06-10T08:27:16;12.20;;;9.00;;
62435;SDS011;48480;50.252;18.848;2023-06-10T08:30:00;11.30;;;8.00;;
62435;SDS011;48480;50.252;18.848;2023-06-10T08:32:44;8.70;;;7.40;;
62435;SDS011;48480;50.252;18.848;2023-06-10T08:35:29;9.10;;;7.50;;
62435;SDS011;48480;50.252;18.848;2023-06-10T08:38:13;7.80;;;7.00;;
62435;SDS011;48480;50.252;18.848;2023-06-10T08:40:59;7.70;;;6.70;;
62435;SDS011;48480;50.252;18.848;2023-06-10T08:43:54;8.20;;;7.00;;
62435;SDS011;48480;50.252;18.848;2023-06-10T08:46:48;8.00;;;7.20;;
62435;SDS011;48480;50.252;18.848;2023-06-10T08:49:34;8.30;;;7.50;;
62435;SDS011;48480;50.252;18.848;2023-06-10T08:52:22;8.70;;;7.80;;
62435;SDS011;48480;50.252;18.848;2023-06-10T08:55:11;9.40;;;8.50;;
62435;SDS011;48480;50.252;18.848;2023-06-10T08:58:04;9.00;;;8.10;;
62435;SDS011;48480;50.252;18.848;2023-06-10T09:00:48;8.90;;;8.00;;
62435;SDS011;48480;50.252;18.848;2023-06-10T09:03:36;11.20;;;8.10;;
62435;SDS011;48480;50.252;18.848;2023-06-10T09:06:21;8.00;;;7.10;;
62435;SDS011;48480;50.252;18.848;2023-06-10T09:09:07;10.00;;;6.70;;
62435;SDS011;48480;50.252;18.848;2023-06-10T09:11:51;7.80;;;6.70;;
62435;SDS011;48480;50.252;18.848;2023-06-10T09:14:35;8.40;;;6.60;;
62435;SDS011;48480;50.252;18.848;2023-06-10T09:17:19;8.20;;;6.50;;
62435;SDS011;48480;50.252;18.848;2023-06-10T09:20:04;7.80;;;6.60;;
62435;SDS011;48480;50.252;18.848;2023-06-10T09:22:48;8.70;;;7.30;;
62435;SDS011;48480;50.252;18.848;2023-06-10T09:25:37;7.20;;;6.50;;
62435;SDS011;48480;50.252;18.848;2023-06-10T09:28:21;7.90;;;6.70;;
62435;SDS011;48480;50.252;18.848;2023-06-10T09:31:06;7.30;;;6.60;;
62435;SDS011;48480;50.252;18.848;2023-06-10T09:33:53;8.30;;;7.00;;
62435;SDS011;48480;50.252;18.848;2023-06-10T09:36:37;7.50;;;6.70;;
62435;SDS011;48480;50.252;18.848;2023-06-10T09:39:22;8.40;;;6.80;;
62435;SDS011;48480;50.252;18.848;2023-06-10T09:42:16;9.10;;;7.10;;
62435;SDS011;48480;50.252;18.848;2023-06-10T09:45:05;8.20;;;6.70;;
62435;SDS011;48480;50.252;18.848;2023-06-10T09:47:51;10.60;;;8.00;;
62435;SDS011;48480;50.252;18.848;2023-06-10T09:50:43;8.50;;;6.50;;
62435;SDS011;48480;50.252;18.848;2023-06-10T09:53:27;10.30;;;7.30;;
62435;SDS011;48480;50.252;18.848;2023-06-10T09:56:14;8.10;;;6.20;;
62435;SDS011;48480;50.252;18.848;2023-06-10T09:58:59;7.60;;;6.00;;
62435;SDS011;48480;50.252;18.848;2023-06-10T10:01:44;7.80;;;5.70;;
62435;SDS011;48480;50.252;18.848;2023-06-10T10:04:39;6.50;;;5.80;;
62435;SDS011;48480;50.252;18.848;2023-06-10T10:07:23;7.40;;;5.70;;
62435;SDS011;48480;50.252;18.848;2023-06-10T10:10:08;6.50;;;5.80;;
62435;SDS011;48480;50.252;18.848;2023-06-10T10:12:54;5.80;;;5.20;;
62435;SDS011;48480;50.252;18.848;2023-06-10T10:15:42;11.20;;;5.30;;
62435;SDS011;48480;50.252;18.848;2023-06-10T10:18:27;5.10;;;4.60;;
62435;SDS011;48480;50.252;18.848;2023-06-10T10:21:15;5.50;;;4.90;;
62435;SDS011;48480;50.252;18.848;2023-06-10T10:24:03;4.40;;;4.00;;
62435;SDS011;48480;50.252;18.848;2023-06-10T10:26:52;5.00;;;3.90;;
62435;SDS011;48480;50.252;18.848;2023-06-10T10:29:42;6.30;;;3.90;;
62435;SDS011;48480;50.252;18.848;2023-06-10T10:35:45;4.10;;;3.70;;
62435;SDS011;48480;50.252;18.848;2023-06-10T10:38:30;4.60;;;3.30;;
62435;SDS011;48480;50.252;18.848;2023-06-10T10:41:16;5.60;;;3.50;;
62435;SDS011;48480;50.252;18.848;2023-06-10T10:44:01;4.30;;;3.50;;
62435;SDS011;48480;50.252;18.848;2023-06-10T10:46:49;5.60;;;3.80;;
62435;SDS011;48480;50.252;18.848;2023-06-10T10:49:35;4.10;;;3.40;;
62435;SDS011;48480;50.252;18.848;2023-06-10T10:52:20;6.20;;;3.80;;
62435;SDS011;48480;50.252;18.848;2023-06-10T10:55:05;5.30;;;3.50;;
62435;SDS011;48480;50.252;18.848;2023-06-10T10:57:56;3.80;;;3.50;;
62435;SDS011;48480;50.252;18.848;2023-06-10T11:00:50;5.00;;;4.20;;
62435;SDS011;48480;50.252;18.848;2023-06-10T11:03:35;5.10;;;4.20;;
62435;SDS011;48480;50.252;18.848;2023-06-10T11:06:27;5.20;;;4.00;;
62435;SDS011;48480;50.252;18.848;2023-06-10T11:09:44;5.70;;;4.10;;
62435;SDS011;48480;50.252;18.848;2023-06-10T11:12:22;5.40;;;3.10;;
62435;SDS011;48480;50.252;18.848;2023-06-10T11:15:07;3.50;;;3.10;;
62435;SDS011;48480;50.252;18.848;2023-06-10T11:18:08;4.70;;;3.50;;
62435;SDS011;48480;50.252;18.848;2023-06-10T11:20:59;4.80;;;3.50;;
62435;SDS011;48480;50.252;18.848;2023-06-10T11:23:45;5.70;;;3.70;;
62435;SDS011;48480;50.252;18.848;2023-06-10T11:26:30;5.40;;;3.20;;
62435;SDS011;48480;50.252;18.848;2023-06-10T11:29:18;4.50;;;3.50;;
62435;SDS011;48480;50.252;18.848;2023-06-10T11:32:04;5.60;;;3.70;;
62435;SDS011;48480;50.252;18.848;2023-06-10T11:34:52;4.90;;;3.30;;
62435;SDS011;48480;50.252;18.848;2023-06-10T11:37:37;4.30;;;3.50;;
62435;SDS011;48480;50.252;18.848;2023-06-10T11:40:21;4.30;;;3.90;;
62435;SDS011;48480;50.252;18.848;2023-06-10T11:43:05;4.70;;;3.60;;
62435;SDS011;48480;50.252;18.848;2023-06-10T11:45:53;4.20;;;3.70;;
62435;SDS011;48480;50.252;18.848;2023-06-10T11:48:39;4.60;;;3.70;;
62435;SDS011;48480;50.252;18.848;2023-06-10T11:51:27;4.90;;;4.40;;
62435;SDS011;48480;50.252;18.848;2023-06-10T11:54:14;4.50;;;3.70;;
62435;SDS011;48480;50.252;18.848;2023-06-10T11:56:59;4.60;;;3.80;;
62435;SDS011;48480;50.252;18.848;2023-06-10T11:59:47;4.30;;;3.90;;
62435;SDS011;48480;50.252;18.848;2023-06-10T12:02:31;5.80;;;3.60;;
62435;SDS011;48480;50.252;18.848;2023-06-10T12:05:15;4.40;;;3.80;;
62435;SDS011;48480;50.252;18.848;2023-06-10T12:08:09;4.40;;;3.90;;
62435;SDS011;48480;50.252;18.848;2023-06-10T12:10:54;5.40;;;3.60;;
62435;SDS011;48480;50.252;18.848;2023-06-10T12:13:45;5.60;;;3.90;;
62435;SDS011;48480;50.252;18.848;2023-06-10T12:16:32;6.10;;;4.20;;
62435;SDS011;48480;50.252;18.848;2023-06-10T12:19:16;4.80;;;3.90;;
62435;SDS011;48480;50.252;18.848;2023-06-10T12:22:01;5.20;;;4.00;;
62435;SDS011;48480;50.252;18.848;2023-06-10T12:24:56;5.40;;;3.70;;
62435;SDS011;48480;50.252;18.848;2023-06-10T12:27:52;4.60;;;4.20;;
62435;SDS011;48480;50.252;18.848;2023-06-10T12:30:37;5.80;;;4.30;;
62435;SDS011;48480;50.252;18.848;2023-06-10T12:33:22;5.10;;;4.10;;
62435;SDS011;48480;50.252;18.848;2023-06-10T12:36:06;6.80;;;4.60;;
62435;SDS011;48480;50.252;18.848;2023-06-10T12:39:04;5.80;;;4.10;;
62435;SDS011;48480;50.252;18.848;2023-06-10T12:41:48;6.80;;;4.50;;
62435;SDS011;48480;50.252;18.848;2023-06-10T12:44:34;5.20;;;4.50;;
62435;SDS011;48480;50.252;18.848;2023-06-10T12:47:28;5.80;;;4.40;;
62435;SDS011;48480;50.252;18.848;2023-06-10T12:50:15;4.90;;;4.40;;
62435;SDS011;48480;50.252;18.848;2023-06-10T12:52:59;5.00;;;4.40;;
62435;SDS011;48480;50.252;18.848;2023-06-10T12:55:44;4.60;;;4.10;;
62435;SDS011;48480;50.252;18.848;2023-06-10T12:58:29;5.30;;;4.80;;
62435;SDS011;48480;50.252;18.848;2023-06-10T13:01:13;5.50;;;4.60;;
62435;SDS011;48480;50.252;18.848;2023-06-10T13:03:57;6.20;;;4.60;;
62435;SDS011;48480;50.252;18.848;2023-06-10T13:06:41;6.80;;;4.50;;
62435;SDS011;48480;50.252;18.848;2023-06-10T13:09:25;4.70;;;4.30;;
62435;SDS011;48480;50.252;18.848;2023-06-10T13:12:09;5.40;;;4.90;;
62435;SDS011;48480;50.252;18.848;2023-06-10T13:14:54;6.40;;;4.50;;
62435;SDS011;48480;50.252;18.848;2023-06-10T13:17:38;9.50;;;4.90;;
62435;SDS011;48480;50.252;18.848;2023-06-10T13:20:23;4.40;;;4.00;;
62435;SDS011;48480;50.252;18.848;2023-06-10T13:23:08;5.20;;;4.60;;
62435;SDS011;48480;50.252;18.848;2023-06-10T13:25:52;5.70;;;4.50;;
62435;SDS011;48480;50.252;18.848;2023-06-10T13:28:37;5.20;;;4.30;;
62435;SDS011;48480;50.252;18.848;2023-06-10T13:31:21;5.60;;;4.70;;
62435;SDS011;48480;50.252;18.848;2023-06-10T13:34:06;5.50;;;5.00;;
62435;SDS011;48480;50.252;18.848;2023-06-10T13:36:50;5.80;;;4.60;;
62435;SDS011;48480;50.252;18.848;2023-06-10T13:39:34;8.10;;;5.00;;
62435;SDS011;48480;50.252;18.848;2023-06-10T13:42:20;7.80;;;5.10;;
62435;SDS011;48480;50.252;18.848;2023-06-10T13:45:04;5.10;;;4.60;;
62435;SDS011;48480;50.252;18.848;2023-06-10T13:47:49;5.70;;;5.00;;
62435;SDS011;48480;50.252;18.848;2023-06-10T13:50:34;5.10;;;4.50;;
62435;SDS011;48480;50.252;18.848;2023-06-10T13:53:18;7.00;;;4.40;;
62435;SDS011;48480;50.252;18.848;2023-06-10T13:56:02;6.00;;;4.50;;
62435;SDS011;48480;50.252;18.848;2023-06-10T13:58:47;5.00;;;4.60;;
62435;SDS011;48480;50.252;18.848;2023-06-10T14:01:32;5.60;;;5.10;;
62435;SDS011;48480;50.252;18.848;2023-06-10T14:04:16;4.80;;;4.40;;
62435;SDS011;48480;50.252;18.848;2023-06-10T14:07:00;5.20;;;4.70;;
62435;SDS011;48480;50.252;18.848;2023-06-10T14:09:44;7.20;;;4.70;;
62435;SDS011;48480;50.252;18.848;2023-06-10T14:12:30;5.20;;;4.70;;
62435;SDS011;48480;50.252;18.848;2023-06-10T14:15:15;5.00;;;4.60;;
62435;SDS011;48480;50.252;18.848;2023-06-10T14:17:59;5.70;;;4.70;;
62435;SDS011;48480;50.252;18.848;2023-06-10T14:20:44;5.60;;;5.10;;
62435;SDS011;48480;50.252;18.848;2023-06-10T14:23:28;5.60;;;5.10;;
62435;SDS011;48480;50.252;18.848;2023-06-10T14:26:12;7.00;;;5.30;;
62435;SDS011;48480;50.252;18.848;2023-06-10T14:28:56;9.20;;;4.60;;
62435;SDS011;48480;50.252;18.848;2023-06-10T14:31:40;5.10;;;3.80;;
62435;SDS011;48480;50.252;18.848;2023-06-10T14:34:25;7.20;;;4.00;;
62435;SDS011;48480;50.252;18.848;2023-06-10T14:37:12;5.70;;;4.20;;
62435;SDS011;48480;50.252;18.848;2023-06-10T14:39:57;6.10;;;3.80;;
62435;SDS011;48480;50.252;18.848;2023-06-10T14:42:41;4.10;;;3.70;;
62435;SDS011;48480;50.252;18.848;2023-06-10T14:45:25;4.20;;;3.30;;
62435;SDS011;48480;50.252;18.848;2023-06-10T14:48:09;4.50;;;3.40;;
62435;SDS011;48480;50.252;18.848;2023-06-10T14:50:53;7.80;;;4.00;;
62435;SDS011;48480;50.252;18.848;2023-06-10T14:53:38;4.10;;;3.20;;
62435;SDS011;48480;50.252;18.848;2023-06-10T14:56:22;3.50;;;3.10;;
62435;SDS011;48480;50.252;18.848;2023-06-10T14:59:09;3.20;;;2.60;;
62435;SDS011;48480;50.252;18.848;2023-06-10T15:01:55;3.30;;;3.00;;
62435;SDS011;48480;50.252;18.848;2023-06-10T15:04:40;6.40;;;3.20;;
62435;SDS011;48480;50.252;18.848;2023-06-10T15:07:24;5.30;;;3.10;;
62435;SDS011;48480;50.252;18.848;2023-06-10T15:10:11;3.60;;;3.20;;
62435;SDS011;48480;50.252;18.848;2023-06-10T15:13:16;4.80;;;3.10;;
62435;SDS011;48480;50.252;18.848;2023-06-10T15:16:05;3.50;;;3.20;;
62435;SDS011;48480;50.252;18.848;2023-06-10T15:19:17;4.30;;;3.20;;
62435;SDS011;48480;50.252;18.848;2023-06-10T15:22:05;4.50;;;3.50;;
62435;SDS011;48480;50.252;18.848;2023-06-10T15:25:02;5.40;;;3.80;;
62435;SDS011;48480;50.252;18.848;2023-06-10T15:27:50;6.10;;;4.30;;
62435;SDS011;48480;50.252;18.848;2023-06-10T15:30:44;4.60;;;3.80;;
62435;SDS011;48480;50.252;18.848;2023-06-10T15:33:56;6.50;;;4.60;;
62435;SDS011;48480;50.252;18.848;2023-06-10T15:37:13;7.00;;;5.60;;
62435;SDS011;48480;50.252;18.848;2023-06-10T15:40:30;6.60;;;5.70;;
62435;SDS011;48480;50.252;18.848;2023-06-10T15:43:19;6.50;;;5.80;;
62435;SDS011;48480;50.252;18.848;2023-06-10T15:46:28;7.30;;;5.70;;
62435;SDS011;48480;50.252;18.848;2023-06-10T15:49:20;6.40;;;5.80;;
62435;SDS011;48480;50.252;18.848;2023-06-10T15:52:37;7.50;;;6.80;;
62435;SDS011;48480;50.252;18.848;2023-06-10T15:58:26;8.60;;;6.40;;
62435;SDS011;48480;50.252;18.848;2023-06-10T16:04:47;11.60;;;6.60;;
62435;SDS011;48480;50.252;18.848;2023-06-10T16:07:54;6.60;;;6.00;;
62435;SDS011;48480;50.252;18.848;2023-06-10T16:11:03;8.90;;;6.00;;
62435;SDS011;48480;50.252;18.848;2023-06-10T16:13:50;7.40;;;6.30;;
62435;SDS011;48480;50.252;18.848;2023-06-10T16:16:46;6.60;;;5.60;;
62435;SDS011;48480;50.252;18.848;2023-06-10T16:19:36;6.70;;;6.10;;
62435;SDS011;48480;50.252;18.848;2023-06-10T16:22:31;6.30;;;5.60;;
62435;SDS011;48480;50.252;18.848;2023-06-10T16:25:15;7.30;;;5.90;;
62435;SDS011;48480;50.252;18.848;2023-06-10T16:28:05;6.40;;;5.60;;